Forside
METAR-TAF:

METAR-TAF

Lufthavne :

Tarawa, Kiribati

Breddekreds: 01-21N, længdekreds: 172-55E, højde: 2 m

Aktuelle vejr

Denne rapport blev lavet for 1 time og 10 minutter siden, kl. 01:00 UTC
Vind 10 kt fra øst
Temperatur 32°C
Fugtighed 63%
Tryk 1006 hPa
Sigt 10 km eller mere
Nogle få skyer i en højde af 2000 ft
Spredte skyer i en højde af 30000 ft

METAR: NGTA 170100Z 09010KT 9999 FEW020 SCT300 32/24 Q1006

Tid: 16:10 (02:10 UTC)

Vejrudsigter

Denne rapport blev lavet for 3 timer og 5 minutter siden, kl. 23:05 UTC
Foreløbig gælder fra 17 på 00 UTC til 17 på 24 UTC
Vind 8 kt fra østsydøst
Sigt 10 km eller mere
Nogle få skyer i en højde af 2000 ft
Brudte skyer i en højde af 10000 ft

TAF: NGTA 162305Z 1700/1724 11008KT 9999 FEW020 BKN100

Vejrobservationer og prognoser fra mere end 4000 lufthavne (METAR og TAF).

De gule og røde prikker repræsenterer de meteorologiske stationer.

Flyt musen over at se navnet på stationen.

Så klik over at se vejr observationer og prognoser.

At skifte det kort: Klik på de grønne knapper med et sort kors for at zoome ind; på den grønne knap med en bindestreg for at zoome ud; eller på de grønne pile for tilstødende kort.


METAR-TAF: